createdAt,value
2023-05-04T00:00:35.038Z,11.20
2023-05-04T00:03:05.053Z,11.10
2023-05-04T00:05:33.651Z,11.10
2023-05-04T00:08:02.056Z,11.10
2023-05-04T00:10:30.521Z,11.10
2023-05-04T00:12:58.780Z,11.10
2023-05-04T00:15:28.185Z,11.10
2023-05-04T00:17:56.801Z,11.10
2023-05-04T00:20:26.449Z,11.10
2023-05-04T00:22:54.857Z,11.20
2023-05-04T00:25:23.224Z,11.10
2023-05-04T00:27:51.399Z,11.00
2023-05-04T00:30:19.961Z,10.90
2023-05-04T00:32:48.425Z,11.00
2023-05-04T00:35:16.906Z,11.00
2023-05-04T00:37:46.877Z,11.00
2023-05-04T00:40:15.257Z,11.10
2023-05-04T00:42:43.459Z,11.00
2023-05-04T00:45:12.429Z,10.80
2023-05-04T00:47:41.117Z,10.70
2023-05-04T00:50:11.533Z,10.70
2023-05-04T00:52:41.456Z,10.80
2023-05-04T00:55:11.991Z,10.80
2023-05-04T00:57:41.842Z,10.80
2023-05-04T01:00:13.419Z,10.70
2023-05-04T01:02:42.619Z,10.70
2023-05-04T01:05:13.533Z,10.70
2023-05-04T01:07:49.177Z,10.70
2023-05-04T01:10:23.865Z,10.60
2023-05-04T01:12:56.947Z,10.60
2023-05-04T01:15:25.768Z,10.60
2023-05-04T01:17:54.279Z,10.60
2023-05-04T01:20:23.000Z,10.60
2023-05-04T01:22:52.772Z,10.50
2023-05-04T01:25:21.150Z,10.50
2023-05-04T01:28:00.960Z,10.60
2023-05-04T01:30:33.284Z,10.50
2023-05-04T01:33:03.859Z,10.50
2023-05-04T01:35:32.731Z,10.50
2023-05-04T01:38:02.726Z,10.50
2023-05-04T01:40:31.425Z,10.40
2023-05-04T01:42:59.780Z,10.30
2023-05-04T01:45:27.980Z,10.30
2023-05-04T01:47:56.380Z,10.30
2023-05-04T01:50:24.729Z,10.40
2023-05-04T01:52:52.913Z,10.40
2023-05-04T01:55:22.703Z,10.40
2023-05-04T01:57:51.051Z,10.30
2023-05-04T02:00:19.704Z,10.30
2023-05-04T02:02:48.092Z,10.30
2023-05-04T02:05:16.674Z,10.20
2023-05-04T02:07:44.893Z,10.20
2023-05-04T02:10:13.616Z,10.20
2023-05-04T02:12:43.898Z,10.10
2023-05-04T02:15:12.860Z,10.10
2023-05-04T02:17:41.564Z,10.20
2023-05-04T02:20:11.455Z,10.10
2023-05-04T02:22:39.620Z,10.00
2023-05-04T02:25:08.942Z,10.00
2023-05-04T02:27:37.350Z,9.90
2023-05-04T02:30:08.194Z,9.90
2023-05-04T02:32:36.682Z,9.90
2023-05-04T02:35:05.182Z,9.90
2023-05-04T02:37:33.321Z,9.80
2023-05-04T02:40:01.981Z,9.80
2023-05-04T02:42:30.396Z,9.80
2023-05-04T02:44:58.537Z,9.80
2023-05-04T02:47:28.375Z,9.80
2023-05-04T02:49:56.764Z,9.80
2023-05-04T02:52:24.921Z,9.80
2023-05-04T02:54:53.412Z,9.70
2023-05-04T02:57:21.761Z,9.70
2023-05-04T02:59:49.895Z,9.70
2023-05-04T03:02:18.253Z,9.60
2023-05-04T03:04:47.875Z,9.60
2023-05-04T03:07:16.067Z,9.50
2023-05-04T03:09:47.353Z,9.40
2023-05-04T03:12:16.109Z,9.50
2023-05-04T03:14:44.297Z,9.50
2023-05-04T03:17:12.698Z,9.40
2023-05-04T03:19:41.130Z,9.40
2023-05-04T03:22:11.076Z,9.40
2023-05-04T03:24:40.120Z,9.40
2023-05-04T03:27:08.327Z,9.50
2023-05-04T03:29:36.730Z,9.50
2023-05-04T03:32:05.176Z,9.50
2023-05-04T03:34:33.395Z,9.40
2023-05-04T03:37:01.753Z,9.30
2023-05-04T03:39:34.144Z,9.20
2023-05-04T03:42:02.670Z,9.20
2023-05-04T03:44:31.049Z,9.20
2023-05-04T03:46:59.475Z,9.20
2023-05-04T03:49:28.665Z,9.20
2023-05-04T03:51:56.885Z,9.10
2023-05-04T03:54:25.159Z,9.00
2023-05-04T03:56:54.874Z,9.00
2023-05-04T03:59:23.045Z,9.00
2023-05-04T04:01:51.622Z,9.10
2023-05-04T04:04:20.028Z,9.00
2023-05-04T04:06:48.218Z,9.00
2023-05-04T04:09:16.991Z,9.10
2023-05-04T04:11:45.487Z,9.10
2023-05-04T04:14:15.122Z,9.00
2023-05-04T04:16:43.753Z,9.00
2023-05-04T04:19:12.264Z,9.00
2023-05-04T04:21:40.561Z,9.10
2023-05-04T04:24:08.918Z,9.00
2023-05-04T04:26:37.405Z,9.00
2023-05-04T04:29:05.560Z,8.90
2023-05-04T04:31:35.359Z,8.80
2023-05-04T04:34:03.883Z,8.70
2023-05-04T04:36:32.045Z,8.60
2023-05-04T04:39:00.887Z,8.70
2023-05-04T04:41:29.102Z,8.70
2023-05-04T04:43:57.246Z,8.70
2023-05-04T04:46:25.897Z,8.70
2023-05-04T04:48:55.577Z,8.60
2023-05-04T04:51:23.974Z,8.70
2023-05-04T04:53:52.667Z,8.80
2023-05-04T04:56:21.654Z,8.80
2023-05-04T04:58:50.933Z,8.80
2023-05-04T05:01:19.398Z,8.80
2023-05-04T05:03:49.182Z,8.90
2023-05-04T05:06:18.755Z,8.80
2023-05-04T05:08:47.128Z,8.80
2023-05-04T05:11:15.465Z,8.80
2023-05-04T05:13:43.707Z,8.80
2023-05-04T05:16:12.012Z,8.70
2023-05-04T05:18:40.188Z,8.70
2023-05-04T05:21:09.271Z,8.70
2023-05-04T05:23:39.129Z,8.80
2023-05-04T05:26:07.492Z,8.80
2023-05-04T05:28:35.683Z,8.90
2023-05-04T05:31:03.999Z,8.90
2023-05-04T05:33:32.287Z,9.00
2023-05-04T05:36:00.555Z,9.00
2023-05-04T05:38:29.051Z,9.30
2023-05-04T05:40:58.637Z,9.50
2023-05-04T05:43:27.119Z,9.80
2023-05-04T05:45:55.825Z,9.90
2023-05-04T05:48:24.063Z,10.10
2023-05-04T05:50:52.340Z,10.20
2023-05-04T05:53:20.775Z,10.30
2023-05-04T05:55:48.953Z,10.50
2023-05-04T05:58:18.613Z,10.60
2023-05-04T06:00:47.556Z,10.60
2023-05-04T06:03:16.096Z,10.70
2023-05-04T06:05:44.254Z,10.90
2023-05-04T06:08:13.086Z,11.20
2023-05-04T06:10:42.018Z,11.30
2023-05-04T06:13:10.198Z,11.30
2023-05-04T06:15:39.887Z,11.50
2023-05-04T06:18:08.131Z,11.60
2023-05-04T06:20:36.275Z,11.70
2023-05-04T06:23:04.476Z,11.60
2023-05-04T06:25:32.681Z,11.60
2023-05-04T06:28:01.208Z,11.60
2023-05-04T06:30:29.759Z,11.60
2023-05-04T06:32:59.398Z,11.60
2023-05-04T06:35:29.762Z,11.60
2023-05-04T06:37:58.708Z,11.70
2023-05-04T06:40:28.043Z,11.80
2023-05-04T06:42:56.312Z,11.90
2023-05-04T06:45:25.034Z,11.90
2023-05-04T06:47:53.615Z,12.10
2023-05-04T06:50:24.106Z,12.40
2023-05-04T06:52:53.052Z,12.60
2023-05-04T06:55:21.400Z,12.70
2023-05-04T06:57:49.545Z,12.60
2023-05-04T07:00:18.933Z,12.60
2023-05-04T07:02:48.353Z,12.70
2023-05-04T07:05:16.640Z,12.90
2023-05-04T07:07:46.886Z,13.00
2023-05-04T07:10:15.666Z,13.20
2023-05-04T07:12:44.183Z,13.30
2023-05-04T07:15:13.022Z,13.40
2023-05-04T07:17:41.772Z,13.60
2023-05-04T07:20:11.344Z,13.90
2023-05-04T07:22:39.708Z,14.20
2023-05-04T07:25:09.833Z,14.50
2023-05-04T07:27:38.148Z,14.70
2023-05-04T07:30:09.531Z,14.70
2023-05-04T07:32:37.742Z,14.80
2023-05-04T07:35:06.956Z,15.10
2023-05-04T07:37:35.513Z,15.80
2023-05-04T07:40:05.958Z,16.50
2023-05-04T07:42:37.354Z,16.80
2023-05-04T07:45:06.440Z,17.00
2023-05-04T07:47:37.675Z,17.20
2023-05-04T07:50:06.769Z,17.30
2023-05-04T07:52:35.265Z,17.60
2023-05-04T07:55:03.447Z,17.70
2023-05-04T07:57:32.962Z,18.00
2023-05-04T08:00:03.046Z,18.10
2023-05-04T08:02:31.494Z,18.10
2023-05-04T08:04:59.977Z,18.10
2023-05-04T08:07:28.486Z,18.30
2023-05-04T08:09:57.243Z,18.40
2023-05-04T08:12:27.210Z,18.80
2023-05-04T08:14:55.492Z,18.90
2023-05-04T08:17:25.184Z,18.40
2023-05-04T08:19:53.705Z,18.30
2023-05-04T08:22:21.882Z,18.30
2023-05-04T08:24:50.198Z,18.20
2023-05-04T08:27:18.798Z,18.30
2023-05-04T08:29:46.951Z,18.20
2023-05-04T08:32:15.096Z,18.10
2023-05-04T08:34:45.041Z,18.20
2023-05-04T08:37:13.317Z,18.50
2023-05-04T08:39:42.227Z,18.60
2023-05-04T08:42:11.785Z,18.90
2023-05-04T08:44:41.159Z,19.30
2023-05-04T08:47:10.924Z,19.70
2023-05-04T08:49:39.349Z,20.00
2023-05-04T08:52:10.092Z,20.20
2023-05-04T08:54:39.785Z,20.00
2023-05-04T08:57:08.439Z,20.10
2023-05-04T08:59:38.583Z,20.00
2023-05-04T09:02:07.358Z,20.10
2023-05-04T09:04:36.310Z,20.10
2023-05-04T09:07:04.669Z,20.40
2023-05-04T09:09:35.505Z,20.40
2023-05-04T09:12:05.845Z,20.60
2023-05-04T09:14:35.705Z,20.80
2023-05-04T09:17:05.069Z,21.10
2023-05-04T09:19:35.007Z,21.60
2023-05-04T09:22:03.313Z,21.90
2023-05-04T09:24:33.376Z,22.20
2023-05-04T09:27:11.687Z,22.10
2023-05-04T09:29:40.833Z,22.20
2023-05-04T09:32:13.695Z,22.30
2023-05-04T09:34:49.766Z,22.10
2023-05-04T09:37:18.805Z,21.80
2023-05-04T09:39:59.697Z,21.80
2023-05-04T09:42:28.874Z,21.80
2023-05-04T09:45:01.821Z,21.80
2023-05-04T09:47:37.642Z,21.60
2023-05-04T09:50:19.812Z,21.70
2023-05-04T09:52:49.905Z,22.10
2023-05-04T09:55:20.511Z,22.20
2023-05-04T09:57:50.402Z,22.20
2023-05-04T10:00:19.945Z,22.10
2023-05-04T10:02:49.286Z,21.90
2023-05-04T10:05:21.263Z,22.00
2023-05-04T10:07:49.701Z,22.40
2023-05-04T10:10:19.247Z,22.70
2023-05-04T10:12:47.693Z,22.70
2023-05-04T10:15:18.051Z,22.80
2023-05-04T10:17:59.265Z,22.80
2023-05-04T10:20:58.188Z,22.50
2023-05-04T10:24:04.804Z,22.60
2023-05-04T10:26:48.400Z,22.50
2023-05-04T10:29:23.500Z,22.80
2023-05-04T10:31:53.490Z,22.70
2023-05-04T10:34:27.008Z,22.60
2023-05-04T10:36:54.991Z,22.80
2023-05-04T10:39:24.681Z,23.10
2023-05-04T10:42:03.028Z,23.30
2023-05-04T10:44:32.708Z,23.20
2023-05-04T10:47:05.999Z,23.10
2023-05-04T10:49:34.955Z,23.50
2023-05-04T10:52:11.202Z,23.90
2023-05-04T10:54:41.009Z,24.10
2023-05-04T10:57:12.783Z,24.40
2023-05-04T10:59:41.949Z,24.20
2023-05-04T11:02:10.260Z,23.90
2023-05-04T11:04:39.774Z,23.70
2023-05-04T11:07:08.872Z,23.40
2023-05-04T11:09:42.242Z,23.40
2023-05-04T11:12:16.547Z,23.60
2023-05-04T11:14:44.994Z,23.60
2023-05-04T11:19:53.051Z,23.60
2023-05-04T11:22:21.613Z,23.70
2023-05-04T11:24:49.980Z,23.60
2023-05-04T11:27:28.877Z,23.80
2023-05-04T11:29:57.841Z,23.60
2023-05-04T11:32:36.310Z,23.30
2023-05-04T11:35:05.690Z,23.60
2023-05-04T11:37:40.651Z,23.90
2023-05-04T11:40:14.231Z,23.80
2023-05-04T11:42:44.913Z,23.90
2023-05-04T11:45:15.707Z,24.10
2023-05-04T11:47:44.409Z,24.00
2023-05-04T11:50:14.429Z,24.10
2023-05-04T11:52:43.503Z,24.50
2023-05-04T11:55:13.423Z,24.40
2023-05-04T11:57:43.489Z,24.00
2023-05-04T12:00:13.021Z,24.00
2023-05-04T12:02:41.433Z,24.00
2023-05-04T12:05:15.371Z,23.80
2023-05-04T12:07:43.610Z,24.00
2023-05-04T12:10:12.215Z,24.00
2023-05-04T12:12:41.022Z,23.40
2023-05-04T12:15:11.869Z,23.00
2023-05-04T12:17:45.272Z,22.90
2023-05-04T12:20:24.676Z,23.00
2023-05-04T12:22:53.437Z,23.30
2023-05-04T12:25:22.062Z,23.40
2023-05-04T12:27:50.210Z,23.40
2023-05-04T12:30:20.217Z,23.40
2023-05-04T12:32:48.340Z,23.40
2023-05-04T12:35:17.100Z,23.70
2023-05-04T12:37:46.182Z,24.00
2023-05-04T12:40:27.867Z,23.80
2023-05-04T12:42:57.095Z,24.00
2023-05-04T12:45:26.685Z,24.00
2023-05-04T12:47:54.882Z,23.90
2023-05-04T12:50:23.426Z,23.90
2023-05-04T12:52:51.614Z,23.90
2023-05-04T12:55:19.731Z,23.80
2023-05-04T12:57:48.227Z,23.80
2023-05-04T13:00:17.093Z,23.90
2023-05-04T13:02:46.725Z,23.80
2023-05-04T13:05:16.910Z,24.40
2023-05-04T13:07:45.444Z,24.70
2023-05-04T13:10:13.649Z,25.30
2023-05-04T13:12:43.482Z,25.30
2023-05-04T13:15:13.483Z,25.20
2023-05-04T13:17:43.562Z,25.00
2023-05-04T13:20:16.293Z,24.90
2023-05-04T13:22:49.056Z,25.00
2023-05-04T13:25:17.319Z,25.10
2023-05-04T13:27:45.967Z,25.40
2023-05-04T13:30:15.086Z,25.50
2023-05-04T13:32:43.338Z,25.60
2023-05-04T13:35:13.188Z,25.10
2023-05-04T13:37:42.611Z,25.10
2023-05-04T13:40:12.074Z,25.30
2023-05-04T13:42:40.265Z,25.00
2023-05-04T13:45:09.970Z,25.10
2023-05-04T13:47:40.021Z,25.60
2023-05-04T13:50:09.260Z,25.80
2023-05-04T13:52:39.484Z,25.80
2023-05-04T13:55:08.314Z,25.60
2023-05-04T13:57:36.664Z,25.40
2023-05-04T14:00:08.082Z,25.50
2023-05-04T14:02:36.812Z,25.30
2023-05-04T14:05:05.849Z,25.40
2023-05-04T14:07:35.612Z,25.70
2023-05-04T14:10:05.592Z,25.90
2023-05-04T14:12:34.862Z,25.90
2023-05-04T14:15:04.695Z,25.80
2023-05-04T14:17:33.018Z,25.60
2023-05-04T14:20:01.527Z,25.60
2023-05-04T14:22:29.892Z,25.40
2023-05-04T14:24:58.109Z,25.40
2023-05-04T14:27:27.887Z,25.50
2023-05-04T14:29:56.159Z,25.40
2023-05-04T14:32:24.443Z,25.40
2023-05-04T14:34:52.994Z,25.40
2023-05-04T14:37:21.322Z,25.40
2023-05-04T14:39:49.549Z,25.50
2023-05-04T14:42:17.924Z,25.70
2023-05-04T14:44:48.132Z,25.80
2023-05-04T14:47:16.499Z,25.80
2023-05-04T14:49:44.931Z,25.80
2023-05-04T14:52:14.885Z,25.70
2023-05-04T14:54:44.820Z,25.80
2023-05-04T14:57:13.132Z,25.90
2023-05-04T14:59:42.333Z,26.20
2023-05-04T15:02:12.581Z,26.00
2023-05-04T15:04:41.107Z,25.90
2023-05-04T15:07:09.778Z,26.00
2023-05-04T15:09:38.243Z,26.20
2023-05-04T15:12:07.692Z,26.00
2023-05-04T15:14:37.811Z,25.80
2023-05-04T15:17:07.077Z,25.80
2023-05-04T15:19:38.617Z,25.70
2023-05-04T15:22:07.345Z,25.80
2023-05-04T15:24:35.846Z,25.70
2023-05-04T15:27:04.211Z,25.70
2023-05-04T15:29:32.435Z,25.70
2023-05-04T15:32:00.808Z,25.60
2023-05-04T15:34:29.107Z,25.60
2023-05-04T15:36:58.760Z,25.60
2023-05-04T15:39:27.656Z,25.60
2023-05-04T15:41:55.939Z,25.80
2023-05-04T15:44:25.056Z,25.80
2023-05-04T15:46:53.451Z,25.80
2023-05-04T15:49:21.708Z,25.80
2023-05-04T15:51:49.847Z,25.80
2023-05-04T15:54:19.651Z,25.80
2023-05-04T15:56:47.943Z,25.90
2023-05-04T15:59:17.907Z,25.90
2023-05-04T16:01:46.285Z,25.80
2023-05-04T16:04:14.758Z,25.70
2023-05-04T16:06:42.904Z,25.70
2023-05-04T16:09:11.313Z,25.70
2023-05-04T16:11:41.074Z,25.80
2023-05-04T16:14:09.386Z,25.90
2023-05-04T16:16:37.580Z,26.00
2023-05-04T16:19:06.022Z,26.10
2023-05-04T16:21:34.310Z,26.30
2023-05-04T16:24:02.449Z,26.30
2023-05-04T16:26:30.930Z,26.30
2023-05-04T16:29:00.789Z,26.10
2023-05-04T16:31:29.065Z,26.10
2023-05-04T16:33:58.108Z,26.20
2023-05-04T16:36:26.811Z,26.20
2023-05-04T16:38:55.034Z,26.20
2023-05-04T16:41:23.710Z,26.10
2023-05-04T16:43:53.021Z,26.20
2023-05-04T16:46:22.607Z,26.20
2023-05-04T16:48:50.954Z,26.20
2023-05-04T16:51:19.195Z,26.10
2023-05-04T16:53:47.370Z,25.80
2023-05-04T16:56:18.591Z,25.70
2023-05-04T16:58:47.082Z,25.50
2023-05-04T17:01:15.538Z,25.40
2023-05-04T17:03:45.538Z,25.20
2023-05-04T17:06:14.058Z,25.30
2023-05-04T17:08:42.280Z,25.10
2023-05-04T17:11:10.974Z,25.00
2023-05-04T17:13:39.273Z,24.90
2023-05-04T17:16:08.322Z,24.90
2023-05-04T17:18:36.588Z,24.80
2023-05-04T17:21:06.703Z,24.60
2023-05-04T17:23:35.115Z,24.60
2023-05-04T17:26:03.507Z,24.50
2023-05-04T17:28:32.122Z,24.40
2023-05-04T17:31:00.300Z,24.50
2023-05-04T17:33:28.419Z,24.40
2023-05-04T17:35:57.613Z,24.30
2023-05-04T17:38:27.297Z,24.30
2023-05-04T17:40:55.548Z,24.40
2023-05-04T17:43:24.367Z,24.20
2023-05-04T17:45:54.278Z,24.00
2023-05-04T17:48:24.590Z,24.00
2023-05-04T17:50:52.890Z,24.00
2023-05-04T17:53:21.055Z,24.00
2023-05-04T17:55:51.300Z,23.90
2023-05-04T17:58:19.762Z,23.90
2023-05-04T18:00:48.654Z,23.90
2023-05-04T18:03:17.853Z,23.80
2023-05-04T18:05:47.318Z,23.80
2023-05-04T18:08:15.728Z,23.70
2023-05-04T18:10:43.960Z,23.70
2023-05-04T18:13:14.113Z,23.60
2023-05-04T18:15:42.377Z,23.50
2023-05-04T18:18:11.230Z,23.50
2023-05-04T18:20:39.688Z,23.50
2023-05-04T18:23:08.297Z,23.40
2023-05-04T18:25:38.280Z,23.30
2023-05-04T18:28:08.337Z,23.30
2023-05-04T18:30:37.886Z,23.30
2023-05-04T18:33:06.169Z,23.20
2023-05-04T18:35:34.710Z,23.10
2023-05-04T18:38:02.906Z,23.10
2023-05-04T18:40:32.013Z,23.10
2023-05-04T18:43:00.605Z,23.00
2023-05-04T18:45:29.046Z,22.90
2023-05-04T18:47:58.652Z,22.80
2023-05-04T18:50:27.125Z,22.70
2023-05-04T18:52:55.313Z,22.60
2023-05-04T18:55:23.758Z,22.60
2023-05-04T18:57:52.010Z,22.60
2023-05-04T19:00:20.452Z,22.40
2023-05-04T19:02:48.775Z,22.30
2023-05-04T19:05:18.469Z,22.30
2023-05-04T19:07:46.742Z,22.20
2023-05-04T19:10:15.234Z,22.10
2023-05-04T19:12:43.598Z,22.00
2023-05-04T19:15:12.010Z,22.00
2023-05-04T19:17:40.302Z,21.90
2023-05-04T19:20:10.538Z,21.60
2023-05-04T19:22:40.112Z,21.40
2023-05-04T19:25:09.529Z,21.30
2023-05-04T19:27:38.461Z,21.20
2023-05-04T19:30:08.528Z,21.10
2023-05-04T19:32:38.724Z,21.00
2023-05-04T19:35:08.493Z,20.90
2023-05-04T19:37:37.632Z,20.90
2023-05-04T19:40:09.085Z,20.80
2023-05-04T19:42:38.231Z,20.70
2023-05-04T19:45:08.281Z,20.50
2023-05-04T19:47:36.495Z,20.50
2023-05-04T19:50:05.243Z,20.50
2023-05-04T19:52:34.852Z,20.30
2023-05-04T19:55:03.101Z,20.30
2023-05-04T19:57:32.923Z,20.30
2023-05-04T20:00:02.094Z,20.30
2023-05-04T20:02:31.180Z,20.30
2023-05-04T20:04:59.699Z,20.30
2023-05-04T20:07:28.159Z,20.30
2023-05-04T20:09:56.353Z,20.30
2023-05-04T20:12:26.533Z,20.20
2023-05-04T20:14:56.203Z,20.10
2023-05-04T20:17:24.610Z,20.10
2023-05-04T20:19:53.113Z,20.10
2023-05-04T20:22:21.333Z,20.10
2023-05-04T20:24:49.676Z,20.10
2023-05-04T20:27:18.154Z,20.00
2023-05-04T20:29:46.647Z,19.90
2023-05-04T20:32:16.516Z,19.90
2023-05-04T20:34:45.164Z,20.00
2023-05-04T20:37:13.392Z,19.80
2023-05-04T20:39:41.590Z,19.70
2023-05-04T20:42:09.873Z,19.70
2023-05-04T20:44:38.651Z,19.70
2023-05-04T20:47:06.821Z,19.50
2023-05-04T20:49:36.553Z,19.50
2023-05-04T20:52:05.017Z,19.50
2023-05-04T20:54:33.190Z,19.40
2023-05-04T20:57:01.844Z,19.50
2023-05-04T20:59:30.132Z,19.40
2023-05-04T21:01:58.738Z,19.30
2023-05-04T21:04:27.185Z,19.30
2023-05-04T21:06:58.127Z,19.20
2023-05-04T21:09:27.056Z,19.20
2023-05-04T21:11:55.274Z,19.20
2023-05-04T21:14:23.754Z,19.20
2023-05-04T21:16:52.028Z,19.20
2023-05-04T21:19:20.664Z,19.20
2023-05-04T21:21:48.890Z,19.20
2023-05-04T21:24:18.434Z,19.10
2023-05-04T21:26:48.552Z,19.00
2023-05-04T21:29:16.994Z,19.00
2023-05-04T21:31:45.239Z,19.00
2023-05-04T21:34:13.634Z,19.10
2023-05-04T21:36:44.660Z,19.10
2023-05-04T21:39:13.011Z,19.00
2023-05-04T21:41:42.796Z,19.10
2023-05-04T21:44:10.925Z,19.00
2023-05-04T21:46:39.089Z,18.90
2023-05-04T21:49:07.453Z,18.80
2023-05-04T21:51:35.618Z,18.70
2023-05-04T21:54:03.785Z,18.70
2023-05-04T21:56:32.180Z,18.70
2023-05-04T21:59:01.698Z,18.60
2023-05-04T22:01:29.913Z,18.40
2023-05-04T22:03:58.499Z,18.30
2023-05-04T22:06:27.229Z,18.20
2023-05-04T22:08:55.483Z,18.00
2023-05-04T22:11:24.141Z,17.90
2023-05-04T22:13:52.469Z,17.80
2023-05-04T22:16:22.244Z,17.60
2023-05-04T22:18:50.717Z,17.50
2023-05-04T22:21:18.870Z,17.40
2023-05-04T22:23:47.173Z,17.40
2023-05-04T22:26:15.662Z,17.40
2023-05-04T22:28:43.858Z,17.40
2023-05-04T22:31:12.447Z,17.60
2023-05-04T22:33:42.285Z,17.60
2023-05-04T22:36:10.978Z,17.50
2023-05-04T22:38:39.279Z,17.40
2023-05-04T22:41:07.613Z,17.40
2023-05-04T22:43:36.238Z,17.40
2023-05-04T22:46:04.591Z,17.20
2023-05-04T22:48:33.740Z,17.20
2023-05-04T22:51:03.912Z,17.20
2023-05-04T22:53:32.144Z,17.10
2023-05-04T22:56:00.464Z,17.10
2023-05-04T22:58:29.022Z,17.00
2023-05-04T23:00:57.412Z,17.00
2023-05-04T23:03:26.074Z,16.90
2023-05-04T23:05:54.412Z,16.80
2023-05-04T23:08:24.011Z,16.90
2023-05-04T23:10:52.316Z,16.80
2023-05-04T23:13:20.609Z,16.70
2023-05-04T23:15:49.102Z,16.60
2023-05-04T23:18:17.610Z,16.60
2023-05-04T23:20:45.868Z,16.50
2023-05-04T23:23:14.625Z,16.50
2023-05-04T23:25:44.337Z,16.50
2023-05-04T23:28:12.531Z,16.50
2023-05-04T23:30:41.071Z,16.40
2023-05-04T23:33:09.903Z,16.30
2023-05-04T23:35:38.059Z,16.30
2023-05-04T23:38:06.397Z,16.20
2023-05-04T23:40:34.702Z,16.20
2023-05-04T23:43:04.229Z,16.10
2023-05-04T23:45:32.518Z,16.10
2023-05-04T23:48:00.836Z,16.00
2023-05-04T23:50:29.057Z,16.00
2023-05-04T23:52:57.420Z,15.90
2023-05-04T23:55:25.703Z,15.90
2023-05-04T23:57:53.969Z,15.80
